• Join FlightAware (Why Join?)
  • Login
  • US Flag 
12:39PM EDT


 

Airport Tracker/Info


-or-


 

Live Flight TrackerFlight Track Log ✈ WJA108 ✈ 22-May-2012 ✈ CYEG - CYZF

Flight Track Log - Related Links

Times and Time Zones

All times are in EDT time to prevent confusion due to time zone crossing. See the WJA108 flight status page for this flight to view local times or setup timezone preferences in your user account.

Time Position Orientation Groundspeed Altitude Reporting Facility
EDT Latitude Longitude Course Direction KTS MPH feet Rate Location/Type
01:39PM 53.3333 -113.5667 360° North 180 207 4,200  Level Edmonton Center
01:43PM 53.6500 -113.5667 360° North 330 380 13,800 2,400 Climbing Edmonton Center
01:44PM 53.7500 -113.5667 354° North 350 403 16,300 2,880 Climbing Edmonton Center
01:45PM 53.8500 -113.5833 360° North 370 426 19,600 2,880 Climbing Edmonton Center
01:46PM 53.9667 -113.5833 360° North 390 449 22,100 2,400 Climbing Edmonton Center
01:47PM 54.0833 -113.5833 355° North 400 460 24,400 2,160 Climbing Edmonton Center
01:48PM 54.2000 -113.6000 360° North 420 483 26,500 1,860 Climbing Edmonton Center
01:49PM 54.3167 -113.6000 360° North 440 506 28,200 1,740 Climbing Edmonton Center
01:50PM 54.4500 -113.6000 352° North 450 518 30,000 1,620 Climbing Edmonton Center
01:51PM 54.5833 -113.6333 360° North 470 541 31,500 1,680 Climbing Edmonton Center
01:52PM 54.7167 -113.6333 360° North 480 552 33,400 1,800 Climbing Edmonton Center
01:53PM 54.8667 -113.6333 352° North 480 552 35,200 1,380 Climbing Edmonton Center
01:54PM 55.0000 -113.6667 360° North 480 552 36,200 1,200 Climbing Edmonton Center
01:55PM 55.1333 -113.6667 360° North 490 564 37,700 1,560 Climbing Edmonton Center
01:56PM 55.2667 -113.6667 360° North 480 552 39,400 1,140 Climbing Edmonton Center
01:57PM 55.3833 -113.6667 356° North 460 529 40,000 300 Climbing Edmonton Center
01:58PM 55.5167 -113.6833 356° North 460 529 40,000  Level Edmonton Center
01:59PM 55.6500 -113.7000 North 450 518 40,000  Level Edmonton Center
02:00PM 55.7833 -113.6833 351° North 450 518 40,000  Level Edmonton Center
02:01PM 55.9000 -113.7167 360° North 450 518 40,000  Level Edmonton Center
02:02PM 56.0333 -113.7167 360° North 460 529 40,000  Level Edmonton Center
02:03PM 56.1500 -113.7167 352° North 450 518 40,000  Level Edmonton Center
02:04PM 56.2833 -113.7500 360° North 450 518 40,000  Level Edmonton Center
02:05PM 56.4167 -113.7500 351° North 450 518 40,000  Level Edmonton Center
02:06PM 56.5333 -113.7833 360° North 450 518 40,000  Level Edmonton Center
02:07PM 56.6667 -113.7833 356° North 450 518 40,000  Level Edmonton Center
02:08PM 56.8000 -113.8000 360° North 450 518 40,000  Level Edmonton Center
02:09PM 56.9333 -113.8000 360° North 450 518 40,000  Level Edmonton Center
02:10PM 57.0500 -113.8000 352° North 450 518 40,000  Level Edmonton Center
02:11PM 57.1833 -113.8333 360° North 450 518 40,000  Level Edmonton Center
02:12PM 57.3000 -113.8333 352° North 460 529 40,000  Level Edmonton Center
02:13PM 57.4333 -113.8667 360° North 460 529 40,000  Level Edmonton Center
02:14PM 57.5667 -113.8667 351° North 460 529 40,000  Level Edmonton Center
02:15PM 57.6833 -113.9000 360° North 460 529 40,000  Level Edmonton Center
02:16PM 57.8333 -113.9000 360° North 460 529 40,000  Level Edmonton Center
02:17PM 57.9500 -113.9000 352° North 460 529 40,000  Level Edmonton Center
02:18PM 58.0833 -113.9333 360° North 460 529 40,000  Level Edmonton Center
02:19PM 58.2000 -113.9333 353° North 460 529 40,000  Level Edmonton Center
02:20PM 58.3333 -113.9667 360° North 460 529 40,000  Level Edmonton Center
02:21PM 58.4667 -113.9667 352° North 450 518 40,000  Level Edmonton Center
02:22PM 58.5833 -114.0000 360° North 450 518 40,000  Level Edmonton Center
02:23PM 58.7333 -114.0000 360° North 450 518 40,000  Level Edmonton Center
02:24PM 58.8500 -114.0000 352° North 440 506 40,000  Level Edmonton Center
02:25PM 58.9667 -114.0333 360° North 440 506 40,000  Level Edmonton Center
02:26PM 59.1000 -114.0333 352° North 440 506 40,000  Level Edmonton Center
02:27PM 59.2167 -114.0667 360° North 450 518 40,000  Level Edmonton Center
02:28PM 59.3500 -114.0667 352° North 440 506 40,000  Level Edmonton Center
02:29PM 59.4667 -114.1000 360° North 450 518 40,000  Level Edmonton Center
02:30PM 59.6000 -114.1000 360° North 450 518 40,000  Level Edmonton Center
02:31PM 59.7333 -114.1000 352° North 450 518 40,000  Level Edmonton Center
02:32PM 59.8500 -114.1333 360° North 450 518 40,000  Level Edmonton Center
02:33PM 59.9833 -114.1333 352° North 440 506 40,000  Level Edmonton Center
02:34PM 60.1000 -114.1667 360° North 440 506 40,000  Level Edmonton Center
02:35PM 60.2167 -114.1667 352° North 440 506 40,000 -540 Level Edmonton Center
02:36PM 60.3333 -114.2000 356° North 440 506 39,000 -1,800 Descending Edmonton Center
02:37PM 60.4667 -114.2167 360° North 440 506 36,400 -2,400 Descending Edmonton Center
02:38PM 60.6000 -114.2167 352° North 430 495 34,200 -2,220 Descending Edmonton Center
02:39PM 60.7167 -114.2500 360° North 420 483 32,000 -2,280 Descending Edmonton Center
02:40PM 60.8333 -114.2500 355° North 410 472 29,700 -2,220 Descending Edmonton Center
02:41PM 60.9333 -114.2667 360° North 400 460 27,600 -2,100 Descending Edmonton Center
02:42PM 61.0500 -114.2667 351° North 390 449 25,600 -1,980 Descending Edmonton Center
02:43PM 61.1500 -114.3000 360° North 370 426 23,700 -1,800 Descending Edmonton Center
02:44PM 61.2500 -114.3000 355° North 360 414 22,100 -1,320 Descending Edmonton Center
02:45PM 61.3333 -114.3167 351° North 340 391 21,100 -1,020 Descending Edmonton Center
02:46PM 61.4333 -114.3500 360° North 330 380 20,100 -1,020 Descending Edmonton Center
02:47PM 61.5167 -114.3500 355° North 330 380 19,100 -1,020 Descending Edmonton Center
02:48PM 61.6167 -114.3667 360° North 320 368 18,100 -1,080 Descending Edmonton Center
02:49PM 61.7167 -114.3667 355° North 320 368 17,000 -1,080 Descending Edmonton Center
02:50PM 61.8000 -114.3833 349° North 320 368 16,000 -1,020 Descending Edmonton Center
02:51PM 61.8833 -114.4167 North 310 357 15,000 -1,020 Descending Edmonton Center
02:52PM 61.9667 -114.4000 351° North 310 357 14,000 -1,080 Descending Edmonton Center
02:53PM 62.0667 -114.4333 349° North 300 345 12,900 -1,440 Descending Edmonton Center
02:54PM 62.1500 -114.4667 349° North 300 345 11,200 -1,440 Descending Edmonton Center
02:57PM 62.3833 -114.5667 335° Northwest 270 311 7,200 -1,380 Descending Edmonton Center
02:58PM 62.4500 -114.6333 353° North 270 311 5,700 -1,200 Descending Edmonton Center
02:59PM 62.5167 -114.6500 North 260 299 4,900 -840 Descending Edmonton Center
03:00PM 62.5833 -114.6333 61° Northeast 240 276 4,100 -900 Descending Edmonton Center
03:01PM 62.6000 -114.5667 145° Southeast 200 230 3,100 -780 Descending Edmonton Center
03:02PM 62.5667 -114.5167 180° South 160 184 2,600 -660 Descending Edmonton Center
03:03PM 62.5333 -114.5167 171° South 150 173 1,800 -780 Descending Edmonton Center
03:04PM 62.4833 -114.5000 167° South 130 150 1,100 -600 Descending Edmonton Center
03:05PM 62.4500 -114.4833 167° South 120 138 600 -540 Descending Edmonton Center